Terminal Aerodrome Forecast
Issued by NWS

Home | Current Version | Previous Version | Text Only | Print | Product List | Glossary On
Versions: 1 2 3 4 5 6 7 8 9 10 11 12 13
000
FTPQ31 PGUM 251720
TAFGUM
TAF

TAF
PTYA 251720Z 2518/2618 22010KT P6SM VCSH SCT016 BKN140
      TEMPO 2518/2522 VRB05KT 5SM SHRA BKN016 OVC040=

USA.gov is the U.S. government's official web portal to all federal, state and local government web resources and services.